createdAt,value
2019-02-16T00:00:03.718Z,1025.02
2019-02-16T00:01:03.672Z,1024.99
2019-02-16T00:02:03.627Z,1024.99
2019-02-16T00:03:03.583Z,1024.99
2019-02-16T00:04:03.537Z,1025.00
2019-02-16T00:05:03.491Z,1024.96
2019-02-16T00:06:03.450Z,1025.00
2019-02-16T00:07:03.402Z,1025.00
2019-02-16T00:08:03.359Z,1024.98
2019-02-16T00:09:03.311Z,1024.98
2019-02-16T00:10:03.267Z,1024.97
2019-02-16T00:11:03.220Z,1024.99
2019-02-16T00:12:03.179Z,1024.97
2019-02-16T00:13:03.130Z,1024.95
2019-02-16T00:14:03.087Z,1024.94
2019-02-16T00:15:03.040Z,1024.92
2019-02-16T00:16:02.996Z,1024.91
2019-02-16T00:17:02.950Z,1024.94
2019-02-16T00:18:02.955Z,1024.87
2019-02-16T00:19:02.860Z,1024.89
2019-02-16T00:20:02.815Z,1024.88
2019-02-16T00:21:04.277Z,1024.87
2019-02-16T00:22:02.726Z,1024.86
2019-02-16T00:23:02.679Z,1024.89
2019-02-16T00:24:02.634Z,1024.86
2019-02-16T00:25:02.590Z,1024.87
2019-02-16T00:26:02.543Z,1024.89
2019-02-16T00:27:02.499Z,1024.84
2019-02-16T00:28:02.454Z,1024.86
2019-02-16T00:29:02.409Z,1024.85
2019-02-16T00:30:02.367Z,1024.83
2019-02-16T00:31:02.319Z,1024.80
2019-02-16T00:32:02.273Z,1024.79
2019-02-16T00:33:02.229Z,1024.78
2019-02-16T00:34:02.182Z,1024.81
2019-02-16T00:35:02.140Z,1024.78
2019-02-16T00:36:02.094Z,1024.76
2019-02-16T00:37:02.047Z,1024.78
2019-02-16T00:38:02.002Z,1024.75
2019-02-16T00:39:02.007Z,1024.78
2019-02-16T00:40:01.913Z,1024.76
2019-02-16T00:41:01.867Z,1024.76
2019-02-16T00:42:01.822Z,1024.73
2019-02-16T00:43:01.777Z,1024.78
2019-02-16T00:44:01.732Z,1024.77
2019-02-16T00:45:01.686Z,1024.79
2019-02-16T00:46:01.644Z,1024.75
2019-02-16T00:47:01.597Z,1024.78
2019-02-16T00:48:01.553Z,1024.76
2019-02-16T00:49:01.504Z,1024.76
2019-02-16T00:50:01.461Z,1024.70
2019-02-16T00:51:01.415Z,1024.73
2019-02-16T00:52:01.370Z,1024.70
2019-02-16T00:53:01.325Z,1024.71
2019-02-16T00:54:01.280Z,1024.69
2019-02-16T00:55:01.235Z,1024.69
2019-02-16T00:56:01.189Z,1024.68
2019-02-16T00:57:01.146Z,1024.72
2019-02-16T00:58:01.101Z,1024.73
2019-02-16T00:59:01.065Z,1024.73
2019-02-16T01:00:01.012Z,1024.70
2019-02-16T01:01:00.964Z,1024.67
2019-02-16T01:02:00.918Z,1024.69
2019-02-16T01:03:00.877Z,1024.69
2019-02-16T01:04:00.829Z,1024.63
2019-02-16T01:05:00.787Z,1024.67
2019-02-16T01:06:00.738Z,1024.65
2019-02-16T01:07:00.693Z,1024.60
2019-02-16T01:08:00.648Z,1024.56
2019-02-16T01:09:00.602Z,1024.56
2019-02-16T01:10:00.558Z,1024.55
2019-02-16T01:11:00.516Z,1024.51
2019-02-16T01:12:00.467Z,1024.50
2019-02-16T01:13:00.421Z,1024.46
2019-02-16T01:14:00.377Z,1024.43
2019-02-16T01:15:00.331Z,1024.47
2019-02-16T01:16:00.287Z,1024.42
2019-02-16T01:17:00.241Z,1024.45
2019-02-16T01:18:00.196Z,1024.42
2019-02-16T01:19:00.162Z,1024.40
2019-02-16T01:20:00.312Z,1024.38
2019-02-16T01:21:00.060Z,1024.36
2019-02-16T01:22:00.017Z,1024.38
2019-02-16T01:22:59.971Z,1024.35
2019-02-16T01:23:59.976Z,1024.31
2019-02-16T01:24:59.880Z,1024.31
2019-02-16T01:25:59.837Z,1024.33
2019-02-16T01:26:59.790Z,1024.29
2019-02-16T01:27:59.746Z,1024.29
2019-02-16T01:28:59.699Z,1024.28
2019-02-16T01:29:59.653Z,1024.26
2019-02-16T01:30:59.608Z,1024.25
2019-02-16T01:31:59.565Z,1024.24
2019-02-16T01:32:59.519Z,1024.23
2019-02-16T01:33:59.477Z,1024.22
2019-02-16T01:34:59.429Z,1024.18
2019-02-16T01:35:59.383Z,1024.19
2019-02-16T01:36:59.340Z,1024.21
2019-02-16T01:37:59.293Z,1024.18
2019-02-16T01:38:59.248Z,1024.20
2019-02-16T01:39:59.207Z,1024.16
2019-02-16T01:40:59.157Z,1024.15
2019-02-16T01:41:59.113Z,1024.12
2019-02-16T01:42:59.072Z,1024.16
2019-02-16T01:43:59.023Z,1024.15
2019-02-16T01:44:58.977Z,1024.13
2019-02-16T01:45:58.982Z,1024.12
2019-02-16T01:46:58.887Z,1024.08
2019-02-16T01:47:58.895Z,1024.06
2019-02-16T01:48:58.797Z,1024.08
2019-02-16T01:49:58.752Z,1024.08
2019-02-16T01:50:58.707Z,1024.03
2019-02-16T01:51:58.662Z,1024.04
2019-02-16T01:52:58.616Z,1024.06
2019-02-16T01:53:58.571Z,1024.04
2019-02-16T01:54:58.526Z,1024.05
2019-02-16T01:55:58.481Z,1024.06
2019-02-16T01:56:58.438Z,1024.00
2019-02-16T01:57:58.390Z,1023.97
2019-02-16T01:58:58.344Z,1023.97
2019-02-16T01:59:58.301Z,1023.96
2019-02-16T02:00:58.255Z,1023.98
2019-02-16T02:01:58.210Z,1023.96
2019-02-16T02:02:58.165Z,1023.96
2019-02-16T02:03:58.121Z,1023.93
2019-02-16T02:04:58.075Z,1023.89
2019-02-16T02:05:58.029Z,1023.84
2019-02-16T02:06:57.989Z,1023.84
2019-02-16T02:07:58.040Z,1023.84
2019-02-16T02:08:57.894Z,1023.82
2019-02-16T02:09:57.848Z,1023.82
2019-02-16T02:10:57.804Z,1023.80
2019-02-16T02:11:57.759Z,1023.81
2019-02-16T02:12:57.714Z,1023.80
2019-02-16T02:13:57.678Z,1023.77
2019-02-16T02:14:57.624Z,1023.81
2019-02-16T02:15:57.579Z,1023.77
2019-02-16T02:16:57.538Z,1023.77
2019-02-16T02:17:57.488Z,1023.75
2019-02-16T02:18:57.444Z,1023.74
2019-02-16T02:19:57.397Z,1023.76
2019-02-16T02:20:57.353Z,1023.74
2019-02-16T02:21:57.308Z,1023.72
2019-02-16T02:22:57.263Z,1023.70
2019-02-16T02:23:57.219Z,1023.71
2019-02-16T02:24:57.173Z,1023.73
2019-02-16T02:25:57.131Z,1023.69
2019-02-16T02:26:57.083Z,1023.69
2019-02-16T02:27:57.094Z,1023.69
2019-02-16T02:28:57.140Z,1023.68
2019-02-16T02:29:57.096Z,1023.66
2019-02-16T02:30:57.219Z,1023.64
2019-02-16T02:31:56.858Z,1023.62
2019-02-16T02:32:56.815Z,1023.64
2019-02-16T02:33:56.767Z,1023.63
2019-02-16T02:34:56.721Z,1023.64
2019-02-16T02:35:56.678Z,1023.66
2019-02-16T02:36:56.636Z,1023.65
2019-02-16T02:37:56.589Z,1023.66
2019-02-16T02:38:56.542Z,1023.63
2019-02-16T02:39:56.497Z,1023.65
2019-02-16T02:40:56.450Z,1023.65
2019-02-16T02:41:56.406Z,1023.65
2019-02-16T02:42:56.360Z,1023.63
2019-02-16T02:43:56.315Z,1023.60
2019-02-16T02:44:56.270Z,1023.59
2019-02-16T02:45:56.225Z,1023.60
2019-02-16T02:46:56.198Z,1023.61
2019-02-16T02:47:56.135Z,1023.59
2019-02-16T02:48:56.122Z,1023.56
2019-02-16T02:49:56.044Z,1023.56
2019-02-16T02:50:56.007Z,1023.50
2019-02-16T02:51:55.955Z,1023.48
2019-02-16T02:52:56.644Z,1023.48
2019-02-16T02:53:55.864Z,1023.50
2019-02-16T02:54:55.819Z,1023.52
2019-02-16T02:55:55.775Z,1023.50
2019-02-16T02:56:55.727Z,1023.48
2019-02-16T02:57:55.684Z,1023.47
2019-02-16T02:58:55.638Z,1023.46
2019-02-16T02:59:55.613Z,1023.47
2019-02-16T03:00:55.548Z,1023.48
2019-02-16T03:01:55.509Z,1023.49
2019-02-16T03:02:55.460Z,1023.44
2019-02-16T03:03:55.414Z,1023.47
2019-02-16T03:04:55.367Z,1023.45
2019-02-16T03:05:55.322Z,1023.45
2019-02-16T03:06:55.278Z,1023.48
2019-02-16T03:07:55.233Z,1023.46
2019-02-16T03:08:55.188Z,1023.42
2019-02-16T03:09:55.142Z,1023.43
2019-02-16T03:10:55.097Z,1023.38
2019-02-16T03:11:55.053Z,1023.44
2019-02-16T03:12:55.006Z,1023.40
2019-02-16T03:13:54.965Z,1023.39
2019-02-16T03:14:54.917Z,1023.37
2019-02-16T03:15:54.874Z,1023.39
2019-02-16T03:16:54.839Z,1023.44
2019-02-16T03:17:54.781Z,1023.38
2019-02-16T03:18:54.736Z,1023.42
2019-02-16T03:19:54.692Z,1023.41
2019-02-16T03:20:54.646Z,1023.42
2019-02-16T03:22:02.494Z,1023.42
2019-02-16T03:22:54.556Z,1023.40
2019-02-16T03:23:54.528Z,1023.39
2019-02-16T03:24:54.465Z,1023.41
2019-02-16T03:25:54.419Z,1023.44
2019-02-16T03:26:54.376Z,1023.39
2019-02-16T03:27:54.330Z,1023.41
2019-02-16T03:28:54.285Z,1023.39
2019-02-16T03:29:54.242Z,1023.38
2019-02-16T03:30:54.233Z,1023.37
2019-02-16T03:31:54.155Z,1023.37
2019-02-16T03:32:54.106Z,1023.32
2019-02-16T03:33:54.093Z,1023.34
2019-02-16T03:34:54.015Z,1023.32
2019-02-16T03:35:53.970Z,1023.31
2019-02-16T03:36:53.928Z,1023.34
2019-02-16T03:37:53.980Z,1023.34
2019-02-16T03:38:53.835Z,1023.31
2019-02-16T03:39:53.798Z,1023.34
2019-02-16T03:40:53.743Z,1023.31
2019-02-16T03:41:53.700Z,1023.32
2019-02-16T03:42:53.653Z,1023.32
2019-02-16T03:43:53.610Z,1023.35
2019-02-16T03:44:53.563Z,1023.34
2019-02-16T03:45:53.518Z,1023.31
2019-02-16T03:46:53.475Z,1023.34
2019-02-16T03:47:53.429Z,1023.34
2019-02-16T03:48:53.383Z,1023.29
2019-02-16T03:49:53.337Z,1023.28
2019-02-16T03:50:53.292Z,1023.30
2019-02-16T03:51:53.248Z,1023.26
2019-02-16T03:52:53.205Z,1023.28
2019-02-16T03:53:53.157Z,1023.25
2019-02-16T03:54:53.115Z,1023.27
2019-02-16T03:55:53.067Z,1023.25
2019-02-16T03:56:53.021Z,1023.26
2019-02-16T03:57:52.976Z,1023.22
2019-02-16T03:58:53.032Z,1023.25
2019-02-16T03:59:52.887Z,1023.22
2019-02-16T04:00:52.841Z,1023.25
2019-02-16T04:01:52.797Z,1023.24
2019-02-16T04:02:52.752Z,1023.25
2019-02-16T04:03:52.706Z,1023.25
2019-02-16T04:04:52.660Z,1023.22
2019-02-16T04:05:52.616Z,1023.24
2019-02-16T04:06:52.571Z,1023.25
2019-02-16T04:07:52.526Z,1023.24
2019-02-16T04:08:52.479Z,1023.23
2019-02-16T04:09:52.435Z,1023.23
2019-02-16T04:10:52.391Z,1023.22
2019-02-16T04:11:52.345Z,1023.23
2019-02-16T04:12:52.301Z,1023.21
2019-02-16T04:13:52.255Z,1023.14
2019-02-16T04:14:52.211Z,1023.19
2019-02-16T04:15:52.172Z,1023.15
2019-02-16T04:16:52.119Z,1023.13
2019-02-16T04:17:52.075Z,1023.11
2019-02-16T04:18:52.030Z,1023.09
2019-02-16T04:19:52.035Z,1023.07
2019-02-16T04:20:51.989Z,1023.02
2019-02-16T04:21:51.900Z,1023.02
2019-02-16T04:22:51.849Z,1023.04
2019-02-16T04:23:51.804Z,1023.01
2019-02-16T04:24:51.760Z,1023.04
2019-02-16T04:25:51.714Z,1022.97
2019-02-16T04:26:51.668Z,1022.96
2019-02-16T04:27:51.625Z,1022.94
2019-02-16T04:28:51.579Z,1022.98
2019-02-16T04:29:51.544Z,1022.94
2019-02-16T04:30:51.489Z,1022.92
2019-02-16T04:31:51.444Z,1022.94
2019-02-16T04:32:51.401Z,1022.91
2019-02-16T04:33:51.352Z,1022.90
2019-02-16T04:34:51.309Z,1022.90
2019-02-16T04:35:51.265Z,1022.85
2019-02-16T04:36:51.217Z,1022.80
2019-02-16T04:37:51.173Z,1022.81
2019-02-16T04:38:51.129Z,1022.76
2019-02-16T04:39:51.082Z,1022.76
2019-02-16T04:40:51.043Z,1022.71
2019-02-16T04:41:51.042Z,1022.70
2019-02-16T04:42:50.997Z,1022.69
2019-02-16T04:43:50.903Z,1022.66
2019-02-16T04:44:50.857Z,1022.65
2019-02-16T04:45:50.813Z,1022.63
2019-02-16T04:46:50.767Z,1022.66
2019-02-16T04:47:50.723Z,1022.66
2019-02-16T04:48:50.676Z,1022.65
2019-02-16T04:49:50.631Z,1022.66
2019-02-16T04:50:50.585Z,1022.61
2019-02-16T04:51:50.543Z,1022.62
2019-02-16T04:52:50.497Z,1022.63
2019-02-16T04:53:50.465Z,1022.64
2019-02-16T04:54:50.406Z,1022.57
2019-02-16T04:55:50.367Z,1022.59
2019-02-16T04:56:50.317Z,1022.60
2019-02-16T04:57:50.271Z,1022.61
2019-02-16T04:58:50.227Z,1022.66
2019-02-16T04:59:50.185Z,1022.59
2019-02-16T05:00:50.138Z,1022.58
2019-02-16T05:01:50.091Z,1022.57
2019-02-16T05:02:50.047Z,1022.55
2019-02-16T05:03:50.002Z,1022.56
2019-02-16T05:04:50.010Z,1022.53
2019-02-16T05:05:49.910Z,1022.57
2019-02-16T05:06:49.930Z,1022.54
2019-02-16T05:07:49.822Z,1022.52
2019-02-16T05:08:49.782Z,1022.54
2019-02-16T05:09:49.728Z,1022.52
2019-02-16T05:10:49.685Z,1022.52
2019-02-16T05:11:49.640Z,1022.51
2019-02-16T05:12:49.594Z,1022.52
2019-02-16T05:13:49.550Z,1022.46
2019-02-16T05:14:49.505Z,1022.47
2019-02-16T05:15:49.471Z,1022.46
2019-02-16T05:16:49.416Z,1022.46
2019-02-16T05:17:49.579Z,1022.43
2019-02-16T05:18:49.324Z,1022.50
2019-02-16T05:19:49.279Z,1022.49
2019-02-16T05:20:49.234Z,1022.46
2019-02-16T05:21:49.193Z,1022.47
2019-02-16T05:22:49.146Z,1022.41
2019-02-16T05:23:49.099Z,1022.44
2019-02-16T05:24:49.055Z,1022.44
2019-02-16T05:25:50.985Z,1022.45
2019-02-16T05:26:48.969Z,1022.42
2019-02-16T05:27:48.968Z,1022.40
2019-02-16T05:28:48.873Z,1022.38
2019-02-16T05:29:49.050Z,1022.38
2019-02-16T05:30:48.783Z,1022.36
2019-02-16T05:31:48.740Z,1022.37
2019-02-16T05:32:48.693Z,1022.36
2019-02-16T05:33:48.652Z,1022.34
2019-02-16T05:34:48.603Z,1022.36
2019-02-16T05:35:48.568Z,1022.36
2019-02-16T05:36:48.513Z,1022.35
2019-02-16T05:37:48.469Z,1022.33
2019-02-16T05:38:48.423Z,1022.33
2019-02-16T05:39:48.384Z,1022.36
2019-02-16T05:40:48.332Z,1022.31
2019-02-16T05:41:48.288Z,1022.33
2019-02-16T05:42:48.249Z,1022.40
2019-02-16T05:43:48.232Z,1022.41
2019-02-16T05:44:48.153Z,1022.36
2019-02-16T05:45:48.144Z,1022.42
2019-02-16T05:46:48.134Z,1022.42
2019-02-16T05:47:48.106Z,1022.42
2019-02-16T05:48:48.197Z,1022.43
2019-02-16T05:49:47.927Z,1022.41
2019-02-16T05:50:48.186Z,1022.39
2019-02-16T05:51:48.321Z,1022.36
2019-02-16T05:52:53.988Z,1022.40
2019-02-16T05:53:47.747Z,1022.38
2019-02-16T05:54:47.702Z,1022.34
2019-02-16T05:55:47.657Z,1022.37
2019-02-16T05:56:47.611Z,1022.37
2019-02-16T05:57:47.570Z,1022.38
2019-02-16T05:58:47.572Z,1022.38
2019-02-16T05:59:47.477Z,1022.37
2019-02-16T06:00:47.431Z,1022.39
2019-02-16T06:01:53.770Z,1022.37
2019-02-16T06:02:47.342Z,1022.37
2019-02-16T06:03:47.299Z,1022.36
2019-02-16T06:04:47.251Z,1022.33
2019-02-16T06:05:47.206Z,1022.37
2019-02-16T06:06:47.162Z,1022.35
2019-02-16T06:07:47.128Z,1022.34
2019-02-16T06:08:47.078Z,1022.35
2019-02-16T06:09:47.026Z,1022.31
2019-02-16T06:10:47.046Z,1022.29
2019-02-16T06:11:46.936Z,1022.27
2019-02-16T06:12:46.891Z,1022.29
2019-02-16T06:13:46.847Z,1022.26
2019-02-16T06:14:46.802Z,1022.23
2019-02-16T06:15:46.756Z,1022.25
2019-02-16T06:16:46.710Z,1022.22
2019-02-16T06:17:46.665Z,1022.23
2019-02-16T06:18:46.621Z,1022.26
2019-02-16T06:19:46.576Z,1022.23
2019-02-16T06:20:46.530Z,1022.24
2019-02-16T06:21:46.486Z,1022.27
2019-02-16T06:22:46.492Z,1022.29
2019-02-16T06:23:46.397Z,1022.30
2019-02-16T06:24:46.353Z,1022.29
2019-02-16T06:25:46.308Z,1022.32
2019-02-16T06:26:46.269Z,1022.34
2019-02-16T06:27:46.216Z,1022.31
2019-02-16T06:28:46.170Z,1022.30
2019-02-16T06:29:46.125Z,1022.29
2019-02-16T06:30:46.118Z,1022.28
2019-02-16T06:31:46.036Z,1022.27
2019-02-16T06:32:45.990Z,1022.25
2019-02-16T06:33:46.115Z,1022.23
2019-02-16T06:34:45.951Z,1022.21
2019-02-16T06:35:45.861Z,1022.26
2019-02-16T06:36:45.809Z,1022.24
2019-02-16T06:37:45.765Z,1022.29
2019-02-16T06:38:45.719Z,1022.27
2019-02-16T06:39:45.675Z,1022.33
2019-02-16T06:40:45.629Z,1022.31
2019-02-16T06:41:45.584Z,1022.31
2019-02-16T06:42:45.542Z,1022.34
2019-02-16T06:43:45.496Z,1022.31
2019-02-16T06:44:45.451Z,1022.29
2019-02-16T06:45:45.407Z,1022.29
2019-02-16T06:46:45.363Z,1022.34
2019-02-16T06:47:45.315Z,1022.31
2019-02-16T06:48:45.272Z,1022.37
2019-02-16T06:49:45.224Z,1022.38
2019-02-16T06:50:45.180Z,1022.38
2019-02-16T06:51:45.185Z,1022.44
2019-02-16T06:52:45.089Z,1022.42
2019-02-16T06:53:45.045Z,1022.38
2019-02-16T06:54:44.999Z,1022.40
2019-02-16T06:55:45.005Z,1022.40
2019-02-16T06:56:44.910Z,1022.38
2019-02-16T06:57:44.864Z,1022.42
2019-02-16T06:58:44.822Z,1022.46
2019-02-16T06:59:44.790Z,1022.46
2019-02-16T07:00:44.730Z,1022.44
2019-02-16T07:01:45.003Z,1022.45
2019-02-16T07:02:44.640Z,1022.47
2019-02-16T07:03:44.594Z,1022.50
2019-02-16T07:04:44.549Z,1022.50
2019-02-16T07:05:44.514Z,1022.46
2019-02-16T07:06:44.558Z,1022.49
2019-02-16T07:07:44.417Z,1022.50
2019-02-16T07:08:44.406Z,1022.50
2019-02-16T07:09:44.325Z,1022.50
2019-02-16T07:10:44.279Z,1022.50
2019-02-16T07:11:44.236Z,1022.50
2019-02-16T07:12:44.192Z,1022.52
2019-02-16T07:13:44.144Z,1022.54
2019-02-16T07:14:44.101Z,1022.53
2019-02-16T07:15:44.060Z,1022.56
2019-02-16T07:16:44.010Z,1022.52
2019-02-16T07:17:44.017Z,1022.48
2019-02-16T07:18:44.026Z,1022.47
2019-02-16T07:19:43.876Z,1022.47
2019-02-16T07:20:43.833Z,1022.42
2019-02-16T07:21:43.787Z,1022.42
2019-02-16T07:22:43.743Z,1022.48
2019-02-16T07:23:43.709Z,1022.41
2019-02-16T07:24:43.652Z,1022.43
2019-02-16T07:25:43.608Z,1022.43
2019-02-16T07:26:43.563Z,1022.45
2019-02-16T07:27:43.519Z,1022.46
2019-02-16T07:28:43.473Z,1022.43
2019-02-16T07:29:43.429Z,1022.45
2019-02-16T07:30:43.385Z,1022.42
2019-02-16T07:31:43.346Z,1022.49
2019-02-16T07:32:43.295Z,1022.44
2019-02-16T07:33:43.254Z,1022.39
2019-02-16T07:34:43.210Z,1022.40
2019-02-16T07:35:43.162Z,1022.37
2019-02-16T07:36:43.123Z,1022.32
2019-02-16T07:37:43.124Z,1022.32
2019-02-16T07:38:43.079Z,1022.34
2019-02-16T07:39:43.134Z,1022.29
2019-02-16T07:40:43.140Z,1022.32
2019-02-16T07:41:42.896Z,1022.30
2019-02-16T07:42:42.852Z,1022.31
2019-02-16T07:43:42.808Z,1022.28
2019-02-16T07:44:42.762Z,1022.33
2019-02-16T07:45:42.719Z,1022.30
2019-02-16T07:46:42.675Z,1022.35
2019-02-16T07:47:42.633Z,1022.32
2019-02-16T07:48:42.588Z,1022.32
2019-02-16T07:49:42.544Z,1022.35
2019-02-16T07:50:42.499Z,1022.37
2019-02-16T07:51:42.454Z,1022.37
2019-02-16T07:52:42.410Z,1022.35
2019-02-16T07:53:42.365Z,1022.35
2019-02-16T07:54:42.322Z,1022.31
2019-02-16T07:55:42.279Z,1022.34
2019-02-16T07:56:42.234Z,1022.35
2019-02-16T07:57:42.190Z,1022.37
2019-02-16T07:58:42.147Z,1022.34
2019-02-16T07:59:42.103Z,1022.38
2019-02-16T08:00:42.059Z,1022.37
2019-02-16T08:01:42.014Z,1022.35
2019-02-16T08:02:41.971Z,1022.34
2019-02-16T08:03:41.928Z,1022.35
2019-02-16T08:04:41.883Z,1022.33
2019-02-16T08:05:41.839Z,1022.32
2019-02-16T08:06:41.797Z,1022.35
2019-02-16T08:07:42.906Z,1022.36
2019-02-16T08:08:41.728Z,1022.35
2019-02-16T08:09:41.665Z,1022.29
2019-02-16T08:10:41.622Z,1022.28
2019-02-16T08:11:41.578Z,1022.26
2019-02-16T08:12:41.534Z,1022.28
2019-02-16T08:13:41.492Z,1022.23
2019-02-16T08:14:41.446Z,1022.26
2019-02-16T08:15:41.404Z,1022.25
2019-02-16T08:16:41.360Z,1022.23
2019-02-16T08:17:41.315Z,1022.26
2019-02-16T08:18:41.273Z,1022.24
2019-02-16T08:19:41.230Z,1022.24
2019-02-16T08:20:41.185Z,1022.17
2019-02-16T08:21:41.142Z,1022.21
2019-02-16T08:22:41.099Z,1022.21
2019-02-16T08:23:41.058Z,1022.21
2019-02-16T08:24:41.019Z,1022.22
2019-02-16T08:25:40.968Z,1022.18
2019-02-16T08:26:40.975Z,1022.15
2019-02-16T08:27:40.882Z,1022.20
2019-02-16T08:28:40.849Z,1022.19
2019-02-16T08:29:40.794Z,1022.14
2019-02-16T08:30:40.751Z,1022.14
2019-02-16T08:31:40.708Z,1022.14
2019-02-16T08:32:40.664Z,1022.15
2019-02-16T08:33:40.676Z,1022.12
2019-02-16T08:34:40.583Z,1022.04
2019-02-16T08:35:40.533Z,1022.03
2019-02-16T08:36:40.494Z,1022.00
2019-02-16T08:37:40.447Z,1022.03
2019-02-16T08:38:40.414Z,1022.02
2019-02-16T08:39:40.361Z,1022.06
2019-02-16T08:40:40.317Z,1021.99
2019-02-16T08:41:40.277Z,1022.04
2019-02-16T08:42:40.231Z,1022.02
2019-02-16T08:43:40.194Z,1022.01
2019-02-16T08:44:40.144Z,1022.02
2019-02-16T08:45:40.100Z,1022.00
2019-02-16T08:46:40.058Z,1022.01
2019-02-16T08:47:40.015Z,1022.00
2019-02-16T08:48:39.972Z,1022.05
2019-02-16T08:49:39.978Z,1021.99
2019-02-16T08:50:39.890Z,1021.99
2019-02-16T08:51:39.842Z,1022.00
2019-02-16T08:52:39.797Z,1022.00
2019-02-16T08:53:39.755Z,1022.02
2019-02-16T08:54:39.713Z,1022.01
2019-02-16T08:55:39.669Z,1021.99
2019-02-16T08:56:39.625Z,1022.01
2019-02-16T08:57:39.580Z,1022.04
2019-02-16T08:58:39.538Z,1022.03
2019-02-16T08:59:39.496Z,1022.03
2019-02-16T09:00:39.452Z,1022.02
2019-02-16T09:01:39.409Z,1021.99
2019-02-16T09:02:39.365Z,1021.99
2019-02-16T09:03:39.323Z,1021.95
2019-02-16T09:04:39.279Z,1021.99
2019-02-16T09:05:39.239Z,1021.99
2019-02-16T09:06:39.195Z,1021.95
2019-02-16T09:07:39.149Z,1021.94
2019-02-16T09:08:39.106Z,1021.92
2019-02-16T09:09:39.062Z,1021.89
2019-02-16T09:10:39.019Z,1021.91
2019-02-16T09:11:38.976Z,1021.89
2019-02-16T09:12:38.932Z,1021.90
2019-02-16T09:13:38.891Z,1021.90
2019-02-16T09:14:38.845Z,1021.90
2019-02-16T09:15:38.802Z,1021.92
2019-02-16T09:16:38.760Z,1021.94
2019-02-16T09:17:38.715Z,1021.92
2019-02-16T09:18:38.672Z,1021.90
2019-02-16T09:19:38.629Z,1021.91
2019-02-16T09:20:38.583Z,1021.88
2019-02-16T09:21:38.553Z,1021.88
2019-02-16T09:22:38.499Z,1021.93
2019-02-16T09:23:38.455Z,1021.91
2019-02-16T09:24:38.411Z,1021.90
2019-02-16T09:25:38.368Z,1021.89
2019-02-16T09:26:38.356Z,1021.89
2019-02-16T09:27:38.282Z,1021.91
2019-02-16T09:28:38.238Z,1021.90
2019-02-16T09:29:38.195Z,1021.90
2019-02-16T09:30:38.151Z,1021.88
2019-02-16T09:31:38.114Z,1021.88
2019-02-16T09:32:38.065Z,1021.84
2019-02-16T09:33:38.021Z,1021.89
2019-02-16T09:34:37.978Z,1021.87
2019-02-16T09:35:37.984Z,1021.85
2019-02-16T09:36:37.891Z,1021.89
2019-02-16T09:37:37.847Z,1021.89
2019-02-16T09:38:37.804Z,1021.90
2019-02-16T09:39:37.761Z,1021.89
2019-02-16T09:40:37.717Z,1021.90
2019-02-16T09:41:37.674Z,1021.89
2019-02-16T09:42:37.631Z,1021.90
2019-02-16T09:43:37.593Z,1021.87
2019-02-16T09:44:37.542Z,1021.93
2019-02-16T09:45:37.499Z,1021.91
2019-02-16T09:46:37.456Z,1021.92
2019-02-16T09:47:37.412Z,1021.92
2019-02-16T09:48:37.368Z,1021.89
2019-02-16T09:49:37.327Z,1021.92
2019-02-16T09:50:37.282Z,1021.89
2019-02-16T09:51:37.239Z,1021.89
2019-02-16T09:52:37.194Z,1021.90
2019-02-16T09:53:37.151Z,1021.89
2019-02-16T09:54:37.108Z,1021.91
2019-02-16T09:55:37.063Z,1021.91
2019-02-16T09:56:37.024Z,1021.91
2019-02-16T09:57:36.977Z,1021.91
2019-02-16T09:58:36.983Z,1021.86
2019-02-16T09:59:36.890Z,1021.87
2019-02-16T10:00:36.846Z,1021.83
2019-02-16T10:01:36.803Z,1021.85
2019-02-16T10:02:36.759Z,1021.82
2019-02-16T10:03:36.716Z,1021.83
2019-02-16T10:04:36.678Z,1021.82
2019-02-16T10:05:36.628Z,1021.84
2019-02-16T10:06:36.585Z,1021.82
2019-02-16T10:07:36.542Z,1021.86
2019-02-16T10:08:36.497Z,1021.84
2019-02-16T10:09:36.454Z,1021.85
2019-02-16T10:10:36.414Z,1021.83
2019-02-16T10:11:36.368Z,1021.88
2019-02-16T10:12:36.323Z,1021.86
2019-02-16T10:13:36.294Z,1021.87
2019-02-16T10:14:36.236Z,1021.88
2019-02-16T10:15:36.192Z,1021.89
2019-02-16T10:16:36.148Z,1021.87
2019-02-16T10:17:36.105Z,1021.86
2019-02-16T10:18:36.060Z,1021.88
2019-02-16T10:19:36.019Z,1021.85
2019-02-16T10:20:35.977Z,1021.87
2019-02-16T10:21:36.030Z,1021.80
2019-02-16T10:22:35.892Z,1021.76
2019-02-16T10:23:35.901Z,1021.73
2019-02-16T10:24:35.798Z,1021.74
2019-02-16T10:25:35.756Z,1021.71
2019-02-16T10:26:35.712Z,1021.68
2019-02-16T10:27:35.669Z,1021.71
2019-02-16T10:28:35.625Z,1021.68
2019-02-16T10:29:35.581Z,1021.70
2019-02-16T10:30:35.538Z,1021.68
2019-02-16T10:31:35.495Z,1021.63
2019-02-16T10:32:35.450Z,1021.62
2019-02-16T10:33:35.408Z,1021.58
2019-02-16T10:34:35.363Z,1021.58
2019-02-16T10:35:36.754Z,1021.59
2019-02-16T10:36:35.275Z,1021.62
2019-02-16T10:37:35.232Z,1021.62
2019-02-16T10:38:35.187Z,1021.63
2019-02-16T10:39:35.144Z,1021.65
2019-02-16T10:40:35.099Z,1021.65
2019-02-16T10:41:35.057Z,1021.64
2019-02-16T10:42:35.014Z,1021.62
2019-02-16T10:43:34.971Z,1021.57
2019-02-16T10:44:34.975Z,1021.58
2019-02-16T10:45:34.882Z,1021.52
2019-02-16T10:46:34.838Z,1021.52
2019-02-16T10:47:34.795Z,1021.52
2019-02-16T10:48:34.749Z,1021.52
2019-02-16T10:49:34.706Z,1021.53
2019-02-16T10:50:34.662Z,1021.52
2019-02-16T10:51:34.620Z,1021.45
2019-02-16T10:52:34.588Z,1021.48
2019-02-16T10:53:34.532Z,1021.44
2019-02-16T10:54:34.488Z,1021.40
2019-02-16T10:55:34.444Z,1021.40
2019-02-16T10:56:34.413Z,1021.38
2019-02-16T10:57:34.356Z,1021.38
2019-02-16T10:58:34.321Z,1021.32
2019-02-16T10:59:34.270Z,1021.33
2019-02-16T11:00:34.225Z,1021.31
2019-02-16T11:01:34.185Z,1021.29
2019-02-16T11:02:34.138Z,1021.31
2019-02-16T11:03:34.094Z,1021.28
2019-02-16T11:04:38.285Z,1021.28
2019-02-16T11:05:34.006Z,1021.25
2019-02-16T11:06:33.963Z,1021.26
2019-02-16T11:07:33.919Z,1021.23
2019-02-16T11:08:33.876Z,1021.27
2019-02-16T11:09:33.833Z,1021.29
2019-02-16T11:10:33.787Z,1021.31
2019-02-16T11:11:33.743Z,1021.32
2019-02-16T11:12:33.700Z,1021.29
2019-02-16T11:13:33.655Z,1021.33
2019-02-16T11:14:33.612Z,1021.31
2019-02-16T11:15:33.568Z,1021.31
2019-02-16T11:16:33.524Z,1021.29
2019-02-16T11:17:33.488Z,1021.28
2019-02-16T11:18:33.436Z,1021.27
2019-02-16T11:19:33.394Z,1021.28
2019-02-16T11:20:33.350Z,1021.29
2019-02-16T11:21:33.304Z,1021.33
2019-02-16T11:22:33.262Z,1021.31
2019-02-16T11:23:33.217Z,1021.32
2019-02-16T11:24:36.108Z,1021.32
2019-02-16T11:25:33.129Z,1021.35
2019-02-16T11:26:33.085Z,1021.34
2019-02-16T11:27:33.042Z,1021.40
2019-02-16T11:28:32.997Z,1021.37
2019-02-16T11:29:32.952Z,1021.39
2019-02-16T11:30:32.910Z,1021.44
2019-02-16T11:31:32.866Z,1021.39
2019-02-16T11:32:32.822Z,1021.40
2019-02-16T11:33:32.784Z,1021.37
2019-02-16T11:34:32.734Z,1021.39
2019-02-16T11:35:32.691Z,1021.40
2019-02-16T11:36:32.647Z,1021.33
2019-02-16T11:37:32.609Z,1021.36
2019-02-16T11:38:32.558Z,1021.29
2019-02-16T11:39:32.516Z,1021.28
2019-02-16T11:40:32.471Z,1021.28
2019-02-16T11:41:32.426Z,1021.24
2019-02-16T11:42:32.383Z,1021.25
2019-02-16T11:43:32.341Z,1021.27
2019-02-16T11:44:32.297Z,1021.26
2019-02-16T11:45:32.715Z,1021.27
2019-02-16T11:46:32.206Z,1021.29
2019-02-16T11:47:32.162Z,1021.28
2019-02-16T11:48:32.119Z,1021.28
2019-02-16T11:49:32.075Z,1021.28
2019-02-16T11:50:32.031Z,1021.23
2019-02-16T11:51:31.988Z,1021.19
2019-02-16T11:52:31.993Z,1021.15
2019-02-16T11:53:31.899Z,1021.15
2019-02-16T11:54:31.858Z,1021.12
2019-02-16T11:55:31.821Z,1021.13
2019-02-16T11:56:31.767Z,1021.12
2019-02-16T11:57:31.726Z,1021.15
2019-02-16T11:58:31.680Z,1021.10
2019-02-16T11:59:31.638Z,1021.14
2019-02-16T12:00:31.591Z,1021.09
2019-02-16T12:01:31.547Z,1021.13
2019-02-16T12:02:39.498Z,1021.11
2019-02-16T12:03:31.530Z,1021.09
2019-02-16T12:04:31.428Z,1021.01